createdAt,value
2019-04-30T00:00:38.321Z,3.72
2019-04-30T00:03:15.956Z,5.72
2019-04-30T00:05:49.270Z,5.60
2019-04-30T00:08:16.327Z,6.10
2019-04-30T00:10:45.414Z,5.60
2019-04-30T00:13:17.527Z,5.42
2019-04-30T00:15:45.286Z,5.53
2019-04-30T00:18:18.402Z,5.30
2019-04-30T00:20:49.257Z,5.53
2019-04-30T00:23:22.397Z,5.05
2019-04-30T00:25:48.413Z,5.42
2019-04-30T00:28:17.098Z,6.30
2019-04-30T00:30:48.343Z,5.75
2019-04-30T00:33:22.156Z,5.62
2019-04-30T00:35:49.745Z,5.67
2019-04-30T00:38:17.851Z,6.28
2019-04-30T00:40:46.614Z,6.10
2019-04-30T00:43:15.610Z,5.50
2019-04-30T00:45:47.380Z,6.00
2019-04-30T00:48:19.329Z,5.78
2019-04-30T00:50:45.987Z,6.40
2019-04-30T00:53:16.500Z,5.37
2019-04-30T00:55:48.387Z,6.22
2019-04-30T00:58:17.507Z,6.00
2019-04-30T01:00:50.036Z,5.50
2019-04-30T01:03:20.086Z,5.78
2019-04-30T01:05:49.794Z,5.70
2019-04-30T01:08:21.070Z,5.40
2019-04-30T01:10:48.903Z,5.87
2019-04-30T01:13:19.203Z,5.62
2019-04-30T01:15:52.251Z,5.50
2019-04-30T01:18:19.338Z,5.83
2019-04-30T01:20:48.765Z,5.53
2019-04-30T01:23:22.093Z,4.90
2019-04-30T01:25:51.472Z,5.30
2019-04-30T01:28:24.132Z,5.60
2019-04-30T01:30:57.949Z,5.58
2019-04-30T01:33:28.469Z,6.12
2019-04-30T01:35:59.542Z,6.72
2019-04-30T01:38:28.677Z,6.20
2019-04-30T01:40:59.622Z,5.62
2019-04-30T01:43:33.526Z,6.37
2019-04-30T01:46:01.803Z,5.37
2019-04-30T01:48:29.926Z,4.67
2019-04-30T01:51:01.071Z,4.75
2019-04-30T01:53:29.173Z,5.53
2019-04-30T01:56:19.184Z,5.60
2019-04-30T01:58:55.671Z,6.40
2019-04-30T02:01:31.115Z,6.90
2019-04-30T02:03:59.511Z,7.10
2019-04-30T02:06:30.483Z,6.95
2019-04-30T02:09:00.956Z,5.50
2019-04-30T02:11:30.419Z,6.20
2019-04-30T02:13:59.246Z,6.03
2019-04-30T02:16:28.957Z,6.42
2019-04-30T02:18:59.653Z,6.78
2019-04-30T02:21:30.056Z,6.55
2019-04-30T02:24:00.072Z,5.70
2019-04-30T02:26:28.775Z,5.70
2019-04-30T02:28:59.317Z,5.92
2019-04-30T02:31:30.776Z,5.55
2019-04-30T02:34:05.898Z,5.78
2019-04-30T02:36:45.390Z,5.60
2019-04-30T02:39:14.051Z,6.42
2019-04-30T02:41:45.570Z,5.75
2019-04-30T02:44:15.521Z,5.72
2019-04-30T02:46:46.133Z,6.10
2019-04-30T02:49:20.166Z,5.65
2019-04-30T02:51:49.978Z,5.17
2019-04-30T02:54:24.706Z,5.55
2019-04-30T02:59:23.078Z,5.58
2019-04-30T03:01:51.839Z,5.47
2019-04-30T03:04:20.510Z,6.28
2019-04-30T03:06:50.224Z,5.33
2019-04-30T03:09:20.127Z,5.85
2019-04-30T03:11:50.115Z,5.35
2019-04-30T03:14:20.055Z,6.53
2019-04-30T03:16:53.568Z,6.42
2019-04-30T03:19:23.889Z,5.60
2019-04-30T03:21:54.235Z,6.05
2019-04-30T03:24:24.412Z,5.85
2019-04-30T03:26:53.214Z,6.15
2019-04-30T03:29:24.046Z,5.97
2019-04-30T03:31:52.899Z,6.28
2019-04-30T03:34:25.633Z,5.85
2019-04-30T03:36:52.141Z,6.22
2019-04-30T03:39:20.807Z,5.05
2019-04-30T03:41:50.198Z,5.55
2019-04-30T03:44:25.593Z,4.97
2019-04-30T03:46:51.225Z,5.12
2019-04-30T03:49:20.390Z,5.12
2019-04-30T03:51:49.842Z,5.20
2019-04-30T03:54:19.510Z,4.83
2019-04-30T03:56:50.243Z,4.80
2019-04-30T03:59:20.665Z,4.62
2019-04-30T04:01:51.047Z,4.50
2019-04-30T04:04:21.340Z,4.30
2019-04-30T04:06:51.653Z,4.72
2019-04-30T04:09:22.474Z,4.70
2019-04-30T04:11:59.847Z,4.58
2019-04-30T04:14:29.628Z,4.95
2019-04-30T04:17:00.065Z,5.75
2019-04-30T04:19:29.224Z,5.25
2019-04-30T04:22:00.450Z,6.35
2019-04-30T04:24:33.559Z,5.90
2019-04-30T04:27:02.391Z,5.97
2019-04-30T04:29:32.522Z,6.47
2019-04-30T04:32:01.188Z,6.20
2019-04-30T04:34:30.351Z,5.50
2019-04-30T04:37:00.156Z,5.70
2019-04-30T04:39:29.747Z,5.80
2019-04-30T04:42:00.020Z,6.40
2019-04-30T04:44:29.474Z,6.20
2019-04-30T04:47:00.168Z,5.67
2019-04-30T04:49:30.556Z,5.50
2019-04-30T04:51:59.497Z,6.10
2019-04-30T04:54:30.045Z,6.17
2019-04-30T04:57:14.015Z,6.08
2019-04-30T04:59:30.889Z,5.83
2019-04-30T05:02:01.203Z,5.45
2019-04-30T05:04:29.974Z,5.92
2019-04-30T05:07:00.063Z,5.75
2019-04-30T05:09:29.013Z,6.08
2019-04-30T05:11:58.649Z,7.00
2019-04-30T05:14:28.820Z,6.62
2019-04-30T05:16:58.931Z,6.62
2019-04-30T05:19:28.604Z,6.42
2019-04-30T05:21:59.602Z,11.25
2019-04-30T05:24:29.480Z,10.35
2019-04-30T05:26:58.673Z,17.30
2019-04-30T05:29:28.961Z,22.82
2019-04-30T05:31:58.564Z,22.77
2019-04-30T05:34:28.829Z,23.07
2019-04-30T05:37:01.002Z,25.43
2019-04-30T05:39:29.806Z,26.52
2019-04-30T05:42:01.498Z,27.37
2019-04-30T05:44:30.215Z,25.25
2019-04-30T05:46:59.317Z,23.35
2019-04-30T05:49:28.767Z,25.45
2019-04-30T05:51:59.326Z,25.52
2019-04-30T05:54:29.222Z,25.17
2019-04-30T05:56:59.403Z,22.22
2019-04-30T05:59:31.082Z,21.70
2019-04-30T06:01:59.799Z,20.55
2019-04-30T06:04:29.393Z,23.02
2019-04-30T06:06:58.715Z,22.52
2019-04-30T06:09:48.532Z,22.00
2019-04-30T06:12:28.429Z,23.25
2019-04-30T06:15:11.747Z,22.37
2019-04-30T06:18:00.067Z,23.27
2019-04-30T06:20:21.048Z,21.27
2019-04-30T06:22:52.285Z,19.90
2019-04-30T06:25:31.115Z,20.12
2019-04-30T06:27:52.470Z,20.65
2019-04-30T06:30:21.265Z,21.55
2019-04-30T06:32:50.017Z,19.37
2019-04-30T06:35:19.458Z,19.25
2019-04-30T06:37:48.895Z,19.62
2019-04-30T06:40:19.626Z,19.42
2019-04-30T06:42:50.302Z,19.85
2019-04-30T06:45:19.310Z,18.73
2019-04-30T06:47:49.109Z,19.37
2019-04-30T06:50:19.370Z,18.95
2019-04-30T06:52:56.270Z,18.05
2019-04-30T07:25:39.136Z,17.40
2019-04-30T07:28:08.972Z,16.07
2019-04-30T07:30:39.563Z,17.30
2019-04-30T07:33:09.507Z,16.93
2019-04-30T07:35:39.907Z,17.23
2019-04-30T07:38:09.294Z,17.12
2019-04-30T07:40:39.020Z,16.05
2019-04-30T07:43:09.968Z,17.55
2019-04-30T07:45:39.749Z,16.12
2019-04-30T07:48:09.529Z,16.35
2019-04-30T07:50:41.041Z,16.37
2019-04-30T07:53:11.283Z,16.82
2019-04-30T07:55:41.247Z,16.23
2019-04-30T07:58:09.992Z,15.63
2019-04-30T08:00:40.228Z,16.12
2019-04-30T08:03:11.204Z,15.88
2019-04-30T08:05:44.933Z,15.20
2019-04-30T08:08:20.978Z,15.78
2019-04-30T08:10:44.100Z,14.90
2019-04-30T08:13:15.199Z,15.58
2019-04-30T08:15:43.280Z,16.93
2019-04-30T08:18:13.034Z,15.28
2019-04-30T08:20:41.696Z,15.88
2019-04-30T08:23:20.300Z,15.98
2019-04-30T08:25:40.946Z,15.60
2019-04-30T08:28:09.701Z,16.05
2019-04-30T08:30:39.124Z,16.80
2019-04-30T08:33:09.473Z,15.80
2019-04-30T08:35:39.776Z,17.67
2019-04-30T08:38:10.727Z,17.82
2019-04-30T08:40:52.814Z,18.25
2019-04-30T08:43:10.041Z,17.12
2019-04-30T08:45:38.725Z,15.88
2019-04-30T08:48:09.115Z,16.02
2019-04-30T08:50:39.291Z,15.28
2019-04-30T08:53:11.459Z,17.45
2019-04-30T08:55:40.520Z,15.83
2019-04-30T08:58:14.797Z,16.75
2019-04-30T09:00:40.047Z,16.50
2019-04-30T09:03:09.341Z,15.53
2019-04-30T09:05:41.289Z,16.32
2019-04-30T09:08:11.645Z,14.87
2019-04-30T09:10:41.803Z,16.57
2019-04-30T09:13:10.477Z,14.53
2019-04-30T09:15:40.092Z,14.20
2019-04-30T09:18:12.429Z,13.78
2019-04-30T09:20:40.895Z,14.05
2019-04-30T09:23:11.246Z,14.23
2019-04-30T09:25:40.036Z,13.30
2019-04-30T09:28:10.801Z,14.60
2019-04-30T09:30:39.464Z,13.58
2019-04-30T09:33:10.923Z,14.70
2019-04-30T09:35:39.510Z,13.93
2019-04-30T09:38:09.205Z,13.28
2019-04-30T09:40:41.635Z,13.38
2019-04-30T09:43:09.961Z,14.28
2019-04-30T09:45:38.705Z,12.55
2019-04-30T09:48:09.427Z,13.10
2019-04-30T09:50:39.105Z,12.35
2019-04-30T09:53:09.901Z,13.20
2019-04-30T09:55:40.447Z,13.28
2019-04-30T09:58:17.211Z,12.30
2019-04-30T10:00:39.579Z,12.82
2019-04-30T10:03:10.388Z,13.28
2019-04-30T10:05:39.139Z,12.95
2019-04-30T10:08:07.934Z,13.20
2019-04-30T10:10:38.837Z,12.35
2019-04-30T10:13:10.006Z,12.73
2019-04-30T10:15:40.330Z,12.58
2019-04-30T10:18:09.909Z,11.33
2019-04-30T10:20:47.053Z,14.33
2019-04-30T10:23:15.759Z,12.10
2019-04-30T10:25:44.420Z,11.63
2019-04-30T10:28:13.100Z,12.88
2019-04-30T10:30:41.866Z,11.83
2019-04-30T10:33:10.580Z,11.40
2019-04-30T10:35:39.352Z,12.80
2019-04-30T10:38:09.830Z,12.60
2019-04-30T10:40:39.115Z,13.32
2019-04-30T10:43:08.915Z,12.85
2019-04-30T10:45:39.019Z,12.78
2019-04-30T10:48:07.736Z,12.00
2019-04-30T10:50:40.963Z,11.53
2019-04-30T10:53:12.254Z,13.65
2019-04-30T10:55:40.335Z,13.43
2019-04-30T10:58:09.009Z,13.95
2019-04-30T11:00:39.889Z,12.70
2019-04-30T11:03:19.090Z,12.80
2019-04-30T11:05:41.362Z,13.10
2019-04-30T11:08:11.559Z,13.65
2019-04-30T11:10:40.282Z,13.55
2019-04-30T11:13:08.957Z,13.40
2019-04-30T11:15:39.275Z,13.03
2019-04-30T11:18:08.632Z,13.30
2019-04-30T11:20:39.524Z,12.53
2019-04-30T11:23:14.177Z,13.55
2019-04-30T11:25:40.655Z,12.85
2019-04-30T11:28:09.264Z,13.60
2019-04-30T11:30:39.238Z,13.80
2019-04-30T11:33:12.875Z,13.55
2019-04-30T11:35:41.953Z,12.70
2019-04-30T11:38:10.602Z,13.00
2019-04-30T11:40:39.918Z,13.70
2019-04-30T11:43:10.309Z,14.55
2019-04-30T11:45:53.919Z,14.95
2019-04-30T11:48:22.580Z,14.45
2019-04-30T11:50:54.225Z,14.30
2019-04-30T11:53:27.879Z,12.73
2019-04-30T11:55:53.420Z,13.48
2019-04-30T11:58:22.133Z,15.05
2019-04-30T12:00:50.903Z,14.10
2019-04-30T12:03:25.489Z,13.60
2019-04-30T12:05:58.915Z,12.65
2019-04-30T12:08:29.453Z,13.85
2019-04-30T12:11:09.761Z,13.20
2019-04-30T12:13:38.445Z,13.68
2019-04-30T12:16:08.719Z,12.85
2019-04-30T12:18:38.841Z,13.20
2019-04-30T12:21:07.595Z,13.00
2019-04-30T12:23:36.252Z,12.23
2019-04-30T12:26:04.965Z,12.33
2019-04-30T12:28:33.645Z,11.95
2019-04-30T12:31:02.335Z,10.48
2019-04-30T12:33:30.999Z,12.15
2019-04-30T12:35:59.737Z,11.45
2019-04-30T12:38:29.880Z,10.80
2019-04-30T12:40:58.782Z,11.03
2019-04-30T12:43:27.477Z,11.08
2019-04-30T12:46:03.482Z,12.03
2019-04-30T12:48:31.192Z,11.10
2019-04-30T12:51:17.855Z,12.28
2019-04-30T12:53:48.195Z,11.70
2019-04-30T12:56:27.143Z,11.15
2019-04-30T12:58:56.684Z,11.55
2019-04-30T13:01:25.422Z,11.15
2019-04-30T13:03:58.674Z,11.38
2019-04-30T13:06:25.132Z,11.78
2019-04-30T13:08:54.537Z,11.33
2019-04-30T13:11:24.208Z,11.78
2019-04-30T13:13:56.767Z,11.43
2019-04-30T13:16:26.512Z,12.40
2019-04-30T13:18:55.265Z,12.43
2019-04-30T13:21:25.981Z,12.05
2019-04-30T13:23:54.640Z,12.75
2019-04-30T13:26:23.314Z,12.93
2019-04-30T13:29:05.545Z,12.70
2019-04-30T13:31:34.293Z,11.50
2019-04-30T13:34:23.070Z,12.03
2019-04-30T13:36:51.861Z,12.85
2019-04-30T13:39:27.007Z,12.55
2019-04-30T13:42:01.655Z,11.78
2019-04-30T13:47:10.977Z,14.95
2019-04-30T13:49:39.740Z,19.35
2019-04-30T13:52:10.281Z,20.37
2019-04-30T13:54:38.991Z,21.42
2019-04-30T13:57:09.105Z,23.12
2019-04-30T13:59:38.060Z,23.22
2019-04-30T14:02:08.690Z,22.62
2019-04-30T14:04:47.851Z,23.02
2019-04-30T14:07:27.545Z,23.83
2019-04-30T14:09:56.243Z,23.55
2019-04-30T14:12:25.305Z,22.42
2019-04-30T14:14:55.656Z,26.12
2019-04-30T14:17:24.520Z,25.62
2019-04-30T14:19:53.788Z,24.63
2019-04-30T14:22:22.480Z,25.40
2019-04-30T14:24:52.602Z,26.90
2019-04-30T14:27:21.473Z,27.17
2019-04-30T14:29:52.637Z,27.55
2019-04-30T14:32:21.418Z,27.75
2019-04-30T14:34:50.705Z,25.02
2019-04-30T14:37:20.145Z,26.57
2019-04-30T14:39:49.444Z,26.68
2019-04-30T14:42:20.881Z,28.85
2019-04-30T14:44:52.087Z,29.60
2019-04-30T14:47:26.376Z,28.57
2019-04-30T14:50:02.644Z,27.70
2019-04-30T14:52:30.845Z,26.82
2019-04-30T14:55:18.745Z,28.98
2019-04-30T15:00:59.239Z,28.27
2019-04-30T15:03:31.778Z,28.73
2019-04-30T15:06:00.456Z,28.02
2019-04-30T15:08:29.384Z,28.17
2019-04-30T15:10:58.100Z,27.75
2019-04-30T15:13:29.372Z,27.73
2019-04-30T15:16:03.632Z,28.77
2019-04-30T15:18:29.014Z,27.37
2019-04-30T15:20:59.458Z,27.70
2019-04-30T15:23:37.340Z,28.15
2019-04-30T15:26:21.612Z,27.82
2019-04-30T15:28:41.481Z,28.90
2019-04-30T15:31:10.241Z,27.93
2019-04-30T15:33:40.786Z,27.77
2019-04-30T15:36:11.133Z,28.25
2019-04-30T15:38:59.082Z,28.95
2019-04-30T15:41:28.936Z,26.62
2019-04-30T15:43:57.630Z,26.37
2019-04-30T15:46:26.522Z,29.72
2019-04-30T15:48:55.195Z,27.48
2019-04-30T15:51:23.880Z,28.15
2019-04-30T15:53:52.633Z,25.82
2019-04-30T15:56:34.125Z,28.73
2019-04-30T15:59:12.169Z,27.90
2019-04-30T16:01:46.371Z,27.22
2019-04-30T16:04:18.502Z,25.15
2019-04-30T16:06:49.120Z,23.55
2019-04-30T16:09:25.603Z,25.45
2019-04-30T16:12:00.606Z,28.65
2019-04-30T16:14:33.931Z,25.27
2019-04-30T16:17:06.562Z,25.37
2019-04-30T16:19:35.506Z,27.10
2019-04-30T16:22:04.792Z,26.33
2019-04-30T16:24:33.550Z,26.75
2019-04-30T16:27:02.247Z,27.05
2019-04-30T16:29:30.989Z,26.73
2019-04-30T16:31:59.691Z,27.65
2019-04-30T16:34:30.404Z,25.92
2019-04-30T16:36:59.328Z,24.00
2019-04-30T16:39:28.784Z,25.88
2019-04-30T16:41:59.138Z,28.15
2019-04-30T16:44:31.011Z,26.87
2019-04-30T16:47:12.702Z,26.02
2019-04-30T16:49:30.823Z,26.62
2019-04-30T16:52:01.494Z,29.18
2019-04-30T16:54:30.500Z,28.73
2019-04-30T16:57:04.154Z,29.57
2019-04-30T16:59:42.707Z,25.15
2019-04-30T17:02:12.954Z,28.92
2019-04-30T17:04:49.980Z,28.50
2019-04-30T17:07:32.166Z,28.25
2019-04-30T17:10:18.988Z,28.17
2019-04-30T17:13:01.299Z,26.95
2019-04-30T17:15:34.597Z,26.55
2019-04-30T17:18:03.347Z,24.77
2019-04-30T17:20:32.120Z,26.23
2019-04-30T17:23:00.891Z,27.10
2019-04-30T17:25:30.866Z,24.60
2019-04-30T17:28:01.501Z,25.48
2019-04-30T17:30:30.416Z,25.60
2019-04-30T17:32:59.737Z,24.77
2019-04-30T17:35:28.964Z,25.57
2019-04-30T17:37:57.642Z,25.10
2019-04-30T17:40:29.155Z,24.90
2019-04-30T17:42:57.927Z,25.00
2019-04-30T17:45:26.650Z,24.55
2019-04-30T17:47:55.931Z,25.55
2019-04-30T17:50:24.624Z,25.77
2019-04-30T17:52:53.428Z,27.35
2019-04-30T17:55:22.220Z,27.95
2019-04-30T17:57:50.905Z,25.95
2019-04-30T18:00:22.324Z,26.42
2019-04-30T18:02:50.313Z,26.62
2019-04-30T18:05:19.611Z,30.02
2019-04-30T18:07:49.805Z,28.47
2019-04-30T18:10:20.468Z,28.47
2019-04-30T18:12:49.154Z,31.00
2019-04-30T18:15:19.520Z,30.43
2019-04-30T18:17:49.857Z,31.75
2019-04-30T18:20:26.209Z,33.05
2019-04-30T18:22:56.526Z,34.92
2019-04-30T18:25:36.128Z,33.60
2019-04-30T18:28:05.356Z,33.02
2019-04-30T18:30:39.131Z,32.75
2019-04-30T18:33:09.867Z,31.77
2019-04-30T18:35:38.882Z,32.53
2019-04-30T18:38:11.368Z,32.88
2019-04-30T18:40:42.053Z,30.50
2019-04-30T18:43:12.854Z,31.37
2019-04-30T18:45:43.088Z,33.50
2019-04-30T18:48:12.137Z,30.00
2019-04-30T18:50:40.836Z,33.67
2019-04-30T18:53:11.634Z,30.80
2019-04-30T18:55:40.332Z,33.60
2019-04-30T18:58:10.440Z,31.62
2019-04-30T19:00:40.804Z,34.65
2019-04-30T19:03:10.057Z,36.38
2019-04-30T19:05:40.302Z,34.13
2019-04-30T19:08:25.708Z,33.63
2019-04-30T19:10:56.042Z,35.83
2019-04-30T19:13:38.291Z,33.50
2019-04-30T19:16:24.716Z,32.90
2019-04-30T19:18:56.276Z,30.20
2019-04-30T19:21:25.480Z,33.35
2019-04-30T19:23:54.483Z,31.10
2019-04-30T19:26:23.242Z,34.88
2019-04-30T19:28:53.492Z,30.52
2019-04-30T19:31:24.302Z,34.08
2019-04-30T19:33:54.366Z,35.65
2019-04-30T19:36:34.983Z,36.50
2019-04-30T19:38:53.571Z,33.28
2019-04-30T19:41:28.674Z,36.73
2019-04-30T19:43:57.480Z,35.78
2019-04-30T19:46:26.273Z,37.90
2019-04-30T19:48:55.049Z,37.45
2019-04-30T19:51:23.755Z,33.98
2019-04-30T19:53:52.977Z,36.17
2019-04-30T19:56:21.938Z,37.05
2019-04-30T19:59:02.062Z,36.30
2019-04-30T20:01:23.221Z,40.28
2019-04-30T20:03:51.998Z,43.05
2019-04-30T20:06:22.157Z,36.45
2019-04-30T20:08:50.947Z,48.68
2019-04-30T20:11:19.695Z,38.78
2019-04-30T20:13:49.023Z,42.58
2019-04-30T20:16:19.738Z,39.50
2019-04-30T20:18:51.244Z,40.35
2019-04-30T20:21:28.339Z,39.48
2019-04-30T20:23:52.071Z,40.40
2019-04-30T20:26:20.777Z,38.58
2019-04-30T20:28:50.565Z,41.28
2019-04-30T20:31:19.315Z,40.95
2019-04-30T20:33:48.966Z,41.60
2019-04-30T20:36:19.036Z,41.77
2019-04-30T20:38:55.429Z,37.60
2019-04-30T20:41:25.748Z,40.48
2019-04-30T20:43:54.857Z,41.30
2019-04-30T20:46:34.244Z,38.05
2019-04-30T20:48:55.479Z,39.80
2019-04-30T20:51:24.158Z,38.02
2019-04-30T20:53:52.867Z,35.48
2019-04-30T20:56:22.648Z,40.08
2019-04-30T20:58:57.882Z,38.60
2019-04-30T21:01:24.845Z,39.35
2019-04-30T21:03:53.615Z,41.20
2019-04-30T21:06:22.317Z,38.00
2019-04-30T21:08:51.093Z,42.67
2019-04-30T21:11:19.823Z,40.08
2019-04-30T21:13:49.103Z,39.08
2019-04-30T21:16:17.968Z,42.90
2019-04-30T21:18:46.655Z,43.38
2019-04-30T21:21:15.347Z,40.65
2019-04-30T21:23:44.028Z,35.50
2019-04-30T21:26:15.429Z,40.43
2019-04-30T21:28:44.119Z,40.20
2019-04-30T21:31:30.717Z,42.85
2019-04-30T21:34:19.481Z,46.10
2019-04-30T21:36:59.786Z,43.35
2019-04-30T21:39:28.505Z,45.50
2019-04-30T21:41:59.339Z,47.43
2019-04-30T21:44:27.684Z,45.67
2019-04-30T21:46:56.959Z,45.23
2019-04-30T21:49:25.708Z,48.02
2019-04-30T21:51:55.122Z,49.00
2019-04-30T21:54:23.896Z,50.48
2019-04-30T21:56:52.594Z,50.50
2019-04-30T21:59:24.633Z,53.17
2019-04-30T22:01:53.619Z,52.95
2019-04-30T22:04:23.846Z,53.30
2019-04-30T22:06:52.684Z,52.38
2019-04-30T22:09:21.735Z,56.58
2019-04-30T22:11:50.394Z,59.77
2019-04-30T22:14:19.218Z,48.98
2019-04-30T22:16:49.435Z,54.30
2019-04-30T22:19:18.266Z,56.13
2019-04-30T22:21:47.015Z,55.98
2019-04-30T22:24:20.007Z,53.25
2019-04-30T22:26:48.734Z,57.23
2019-04-30T22:29:19.122Z,56.23
2019-04-30T22:31:49.473Z,58.30
2019-04-30T22:34:18.324Z,55.70
2019-04-30T22:36:48.815Z,59.10
2019-04-30T22:39:19.947Z,53.48
2019-04-30T22:41:48.916Z,54.90
2019-04-30T22:44:17.822Z,54.70
2019-04-30T22:46:46.507Z,54.63
2019-04-30T22:49:16.645Z,55.23
2019-04-30T22:51:45.415Z,54.55
2019-04-30T22:54:14.078Z,52.50
2019-04-30T22:56:42.879Z,52.98
2019-04-30T22:59:11.556Z,50.23
2019-04-30T23:01:58.082Z,51.23
2019-04-30T23:04:30.600Z,50.78
2019-04-30T23:06:59.257Z,51.08
2019-04-30T23:09:27.973Z,48.38
2019-04-30T23:11:56.724Z,49.65
2019-04-30T23:14:25.438Z,51.08
2019-04-30T23:16:55.534Z,48.17
2019-04-30T23:19:24.329Z,51.55
2019-04-30T23:21:53.275Z,46.55
2019-04-30T23:24:21.981Z,48.28
2019-04-30T23:26:50.674Z,47.38
2019-04-30T23:29:19.450Z,48.28
2019-04-30T23:31:48.122Z,49.73
2019-04-30T23:34:18.018Z,48.55
2019-04-30T23:36:47.223Z,49.13
2019-04-30T23:39:15.997Z,46.08
2019-04-30T23:41:44.706Z,44.98
2019-04-30T23:44:13.478Z,44.48
2019-04-30T23:46:43.279Z,43.68
2019-04-30T23:49:11.915Z,41.40
2019-04-30T23:51:42.172Z,42.65
2019-04-30T23:54:10.855Z,43.58
2019-04-30T23:56:42.451Z,41.63
2019-04-30T23:59:11.225Z,41.15
